createdAt,value
2019-05-25T00:07:54.086Z,0.07
2019-05-25T00:17:57.424Z,0.01
2019-05-25T00:27:54.182Z,0.01
2019-05-25T00:37:54.090Z,0.13
2019-05-25T00:47:55.173Z,0.00
2019-05-25T00:57:54.258Z,0.01
2019-05-25T01:07:54.336Z,0.00
2019-05-25T01:17:54.157Z,0.00
2019-05-25T01:27:54.149Z,0.02
2019-05-25T01:37:54.092Z,0.01
2019-05-25T01:47:54.167Z,0.35
2019-05-25T01:57:54.135Z,0.29
2019-05-25T02:07:54.205Z,0.58
2019-05-25T02:17:54.146Z,0.48
2019-05-25T02:27:54.861Z,0.40
2019-05-25T02:37:54.102Z,0.28
2019-05-25T02:47:54.193Z,0.02
2019-05-25T02:57:54.150Z,0.08
2019-05-25T03:07:54.143Z,0.04
2019-05-25T03:17:54.175Z,0.00
2019-05-25T03:27:54.156Z,0.00
2019-05-25T03:37:54.014Z,0.02
2019-05-25T03:47:54.175Z,0.00
2019-05-25T03:57:54.167Z,0.00
2019-05-25T04:07:54.033Z,0.00
2019-05-25T04:17:54.173Z,0.00
2019-05-25T04:27:54.151Z,0.00
2019-05-25T04:37:54.120Z,0.00
2019-05-25T04:47:54.168Z,0.00
2019-05-25T04:57:54.254Z,0.00
2019-05-25T05:07:54.226Z,0.00
2019-05-25T05:17:54.177Z,0.00
2019-05-25T05:27:54.143Z,0.22
2019-05-25T05:37:54.201Z,0.26
2019-05-25T05:47:54.174Z,0.17
2019-05-25T05:57:54.158Z,0.03
2019-05-25T06:07:54.113Z,0.15
2019-05-25T06:17:54.199Z,0.16
2019-05-25T06:27:54.163Z,0.45
2019-05-25T06:37:54.114Z,0.22
2019-05-25T06:47:54.199Z,0.13
2019-05-25T06:57:54.158Z,0.13
2019-05-25T07:07:55.268Z,0.62
2019-05-25T07:17:54.183Z,0.34
2019-05-25T07:27:59.780Z,0.39
2019-05-25T07:37:54.122Z,0.37
2019-05-25T07:47:54.188Z,1.62
2019-05-25T07:57:54.195Z,1.76
2019-05-25T08:07:54.154Z,1.17
2019-05-25T08:17:54.183Z,0.23
2019-05-25T08:27:54.184Z,0.35
2019-05-25T08:37:54.117Z,0.21
2019-05-25T08:47:57.090Z,0.64
2019-05-25T08:57:54.894Z,0.58
2019-05-25T09:07:54.235Z,0.92
2019-05-25T09:17:54.213Z,0.69
2019-05-25T09:27:54.251Z,0.49
2019-05-25T09:37:54.249Z,1.07
2019-05-25T09:47:54.218Z,0.54
2019-05-25T09:57:54.163Z,0.72
2019-05-25T10:07:54.102Z,0.60
2019-05-25T10:17:54.205Z,1.54
2019-05-25T10:27:54.164Z,0.72
2019-05-25T10:37:54.252Z,0.83
2019-05-25T10:47:54.197Z,1.41
2019-05-25T10:57:54.234Z,0.92
2019-05-25T11:07:54.232Z,1.30
2019-05-25T11:17:54.228Z,1.02
2019-05-25T11:27:54.173Z,1.61
2019-05-25T11:37:54.239Z,2.42
2019-05-25T11:47:54.213Z,2.92
2019-05-25T11:57:54.274Z,2.49
2019-05-25T12:07:54.244Z,1.90
2019-05-25T12:17:54.236Z,1.53
2019-05-25T12:27:55.223Z,1.16
2019-05-25T12:37:54.265Z,0.95
2019-05-25T12:47:54.198Z,1.70
2019-05-25T12:57:54.287Z,2.17
2019-05-25T13:07:54.354Z,0.68
2019-05-25T13:17:54.226Z,0.84
2019-05-25T13:27:54.302Z,1.13
2019-05-25T13:37:54.330Z,2.78
2019-05-25T13:47:54.224Z,1.36
2019-05-25T13:57:54.288Z,0.94
2019-05-25T14:07:54.237Z,1.54
2019-05-25T14:17:54.325Z,1.43
2019-05-25T14:27:54.292Z,0.88
2019-05-25T14:37:54.278Z,1.31
2019-05-25T14:47:54.318Z,0.81
2019-05-25T14:57:54.293Z,0.71
2019-05-25T15:07:54.271Z,0.55
2019-05-25T15:17:54.349Z,0.62
2019-05-25T15:27:54.397Z,0.62
2019-05-25T15:37:54.359Z,0.81
2019-05-25T15:47:54.328Z,0.50
2019-05-25T15:57:54.413Z,0.77
2019-05-25T16:07:54.369Z,0.45
2019-05-25T16:17:54.317Z,0.29
2019-05-25T16:27:54.331Z,0.22
2019-05-25T16:37:54.414Z,0.24
2019-05-25T16:47:54.356Z,0.37
2019-05-25T16:57:54.414Z,0.18
2019-05-25T17:07:54.294Z,0.42
2019-05-25T17:17:54.363Z,0.28
2019-05-25T17:27:54.323Z,0.43
2019-05-25T17:37:54.295Z,0.29
2019-05-25T17:47:54.359Z,0.39
2019-05-25T17:57:54.343Z,0.32
2019-05-25T18:07:54.296Z,0.32
2019-05-25T18:17:54.369Z,0.35
2019-05-25T18:27:54.438Z,0.10
2019-05-25T18:37:54.371Z,0.07
2019-05-25T18:47:54.381Z,0.00
2019-05-25T18:57:54.326Z,0.00
2019-05-25T19:07:54.300Z,0.05
2019-05-25T19:17:54.367Z,0.01
2019-05-25T19:27:57.163Z,0.01
2019-05-25T19:37:54.293Z,0.00
2019-05-25T19:47:54.373Z,0.00
2019-05-25T19:57:54.348Z,0.08
2019-05-25T20:07:54.462Z,0.08
2019-05-25T20:17:54.373Z,0.00
2019-05-25T20:27:54.344Z,0.00
2019-05-25T20:37:54.278Z,0.01
2019-05-25T20:47:54.368Z,0.00
2019-05-25T20:57:54.355Z,0.00
2019-05-25T21:07:54.399Z,0.05
2019-05-25T21:17:54.377Z,0.01
2019-05-25T21:27:54.338Z,0.02
2019-05-25T21:37:54.426Z,0.01
2019-05-25T21:47:56.241Z,0.01
2019-05-25T21:57:54.350Z,0.15
2019-05-25T22:07:54.409Z,0.02
2019-05-25T22:17:54.427Z,0.01
2019-05-25T22:27:54.349Z,0.00
2019-05-25T22:37:55.021Z,0.50
2019-05-25T22:47:54.391Z,0.41
2019-05-25T22:57:54.361Z,0.29
2019-05-25T23:07:54.317Z,0.69
2019-05-25T23:17:54.359Z,0.95
2019-05-25T23:27:54.337Z,1.02
2019-05-25T23:37:54.396Z,0.87
2019-05-25T23:47:54.431Z,0.55
2019-05-25T23:57:54.331Z,0.70
